sensor_id;sensor_type;location;lat;lon;timestamp;temperature;humidity
19947;DHT22;10135;50.702;7.276;2022-07-23T00:00:05;22.80;56.40
19947;DHT22;10135;50.702;7.276;2022-07-23T00:02:06;22.70;56.40
19947;DHT22;10135;50.702;7.276;2022-07-23T00:04:07;22.70;56.50
19947;DHT22;10135;50.702;7.276;2022-07-23T00:06:08;22.60;56.50
19947;DHT22;10135;50.702;7.276;2022-07-23T00:08:08;22.60;56.60
19947;DHT22;10135;50.702;7.276;2022-07-23T00:10:10;22.60;56.70
19947;DHT22;10135;50.702;7.276;2022-07-23T00:12:10;22.60;56.70
19947;DHT22;10135;50.702;7.276;2022-07-23T00:14:11;22.60;56.70
19947;DHT22;10135;50.702;7.276;2022-07-23T00:16:12;22.60;56.80
19947;DHT22;10135;50.702;7.276;2022-07-23T00:18:12;22.60;56.80
19947;DHT22;10135;50.702;7.276;2022-07-23T00:20:13;22.60;56.90
19947;DHT22;10135;50.702;7.276;2022-07-23T00:22:14;22.60;56.90
19947;DHT22;10135;50.702;7.276;2022-07-23T00:24:15;22.60;56.90
19947;DHT22;10135;50.702;7.276;2022-07-23T00:26:16;22.60;56.90
19947;DHT22;10135;50.702;7.276;2022-07-23T00:28:16;22.60;56.90
19947;DHT22;10135;50.702;7.276;2022-07-23T00:30:18;22.60;56.90
19947;DHT22;10135;50.702;7.276;2022-07-23T00:32:19;22.60;56.90
19947;DHT22;10135;50.702;7.276;2022-07-23T00:34:19;22.60;56.90
19947;DHT22;10135;50.702;7.276;2022-07-23T00:36:20;22.60;56.90
19947;DHT22;10135;50.702;7.276;2022-07-23T00:38:21;22.60;56.90
19947;DHT22;10135;50.702;7.276;2022-07-23T00:40:22;22.60;57.00
19947;DHT22;10135;50.702;7.276;2022-07-23T00:42:23;22.60;56.90
19947;DHT22;10135;50.702;7.276;2022-07-23T00:44:25;22.60;56.90
19947;DHT22;10135;50.702;7.276;2022-07-23T00:46:27;22.60;57.00
19947;DHT22;10135;50.702;7.276;2022-07-23T00:48:28;22.50;56.90
19947;DHT22;10135;50.702;7.276;2022-07-23T00:50:29;22.50;56.90
19947;DHT22;10135;50.702;7.276;2022-07-23T00:52:30;22.50;57.00
19947;DHT22;10135;50.702;7.276;2022-07-23T00:54:32;22.50;57.00
19947;DHT22;10135;50.702;7.276;2022-07-23T00:56:33;22.50;57.00
19947;DHT22;10135;50.702;7.276;2022-07-23T00:58:35;22.50;57.10
19947;DHT22;10135;50.702;7.276;2022-07-23T01:00:37;22.50;57.10
19947;DHT22;10135;50.702;7.276;2022-07-23T01:02:38;22.50;57.50
19947;DHT22;10135;50.702;7.276;2022-07-23T01:04:39;22.50;57.20
19947;DHT22;10135;50.702;7.276;2022-07-23T01:06:41;22.50;57.20
19947;DHT22;10135;50.702;7.276;2022-07-23T01:08:46;22.50;57.30
19947;DHT22;10135;50.702;7.276;2022-07-23T01:10:55;22.40;57.30
19947;DHT22;10135;50.702;7.276;2022-07-23T01:13:05;22.40;57.40
19947;DHT22;10135;50.702;7.276;2022-07-23T01:15:08;22.40;57.40
19947;DHT22;10135;50.702;7.276;2022-07-23T01:17:09;22.40;57.40
19947;DHT22;10135;50.702;7.276;2022-07-23T01:19:14;22.40;57.50
19947;DHT22;10135;50.702;7.276;2022-07-23T01:21:18;22.40;57.50
19947;DHT22;10135;50.702;7.276;2022-07-23T01:23:19;22.40;57.60
19947;DHT22;10135;50.702;7.276;2022-07-23T01:25:22;22.30;57.50
19947;DHT22;10135;50.702;7.276;2022-07-23T01:27:23;22.40;57.60
19947;DHT22;10135;50.702;7.276;2022-07-23T01:29:24;22.30;57.60
19947;DHT22;10135;50.702;7.276;2022-07-23T01:31:25;22.30;57.60
19947;DHT22;10135;50.702;7.276;2022-07-23T01:33:32;22.30;57.60
19947;DHT22;10135;50.702;7.276;2022-07-23T01:35:38;22.30;57.70
19947;DHT22;10135;50.702;7.276;2022-07-23T01:37:39;22.30;57.60
19947;DHT22;10135;50.702;7.276;2022-07-23T01:39:40;22.30;57.70
19947;DHT22;10135;50.702;7.276;2022-07-23T01:41:41;22.30;57.70
19947;DHT22;10135;50.702;7.276;2022-07-23T01:43:41;22.30;57.70
19947;DHT22;10135;50.702;7.276;2022-07-23T01:45:42;22.30;57.70
19947;DHT22;10135;50.702;7.276;2022-07-23T01:47:46;22.20;57.70
19947;DHT22;10135;50.702;7.276;2022-07-23T01:49:47;22.20;57.70
19947;DHT22;10135;50.702;7.276;2022-07-23T01:51:51;22.20;57.70
19947;DHT22;10135;50.702;7.276;2022-07-23T01:54:01;22.20;57.70
19947;DHT22;10135;50.702;7.276;2022-07-23T01:56:01;22.20;57.80
19947;DHT22;10135;50.702;7.276;2022-07-23T01:58:03;22.20;57.80
19947;DHT22;10135;50.702;7.276;2022-07-23T02:00:04;22.20;57.90
19947;DHT22;10135;50.702;7.276;2022-07-23T02:02:06;22.20;57.90
19947;DHT22;10135;50.702;7.276;2022-07-23T02:04:09;22.20;57.90
19947;DHT22;10135;50.702;7.276;2022-07-23T02:06:09;22.20;57.90
19947;DHT22;10135;50.702;7.276;2022-07-23T02:08:10;22.20;57.90
19947;DHT22;10135;50.702;7.276;2022-07-23T02:10:11;22.20;57.90
19947;DHT22;10135;50.702;7.276;2022-07-23T02:12:12;22.20;57.90
19947;DHT22;10135;50.702;7.276;2022-07-23T02:14:12;22.20;57.90
19947;DHT22;10135;50.702;7.276;2022-07-23T02:16:13;22.20;58.00
19947;DHT22;10135;50.702;7.276;2022-07-23T02:18:14;22.20;58.00
19947;DHT22;10135;50.702;7.276;2022-07-23T02:20:15;22.10;58.00
19947;DHT22;10135;50.702;7.276;2022-07-23T02:22:15;22.20;58.00
19947;DHT22;10135;50.702;7.276;2022-07-23T02:24:17;22.20;58.00
19947;DHT22;10135;50.702;7.276;2022-07-23T02:26:17;22.20;58.00
19947;DHT22;10135;50.702;7.276;2022-07-23T02:28:21;22.20;58.10
19947;DHT22;10135;50.702;7.276;2022-07-23T02:30:22;22.10;58.00
19947;DHT22;10135;50.702;7.276;2022-07-23T02:32:22;22.10;58.00
19947;DHT22;10135;50.702;7.276;2022-07-23T02:34:23;22.10;58.00
19947;DHT22;10135;50.702;7.276;2022-07-23T02:36:24;22.10;58.00
19947;DHT22;10135;50.702;7.276;2022-07-23T02:38:25;22.10;58.10
19947;DHT22;10135;50.702;7.276;2022-07-23T02:40:26;22.10;58.70
19947;DHT22;10135;50.702;7.276;2022-07-23T02:42:27;22.10;58.70
19947;DHT22;10135;50.702;7.276;2022-07-23T02:44:27;22.10;58.20
19947;DHT22;10135;50.702;7.276;2022-07-23T02:46:28;22.00;58.10
19947;DHT22;10135;50.702;7.276;2022-07-23T02:48:29;22.00;58.20
19947;DHT22;10135;50.702;7.276;2022-07-23T02:50:30;22.00;58.20
19947;DHT22;10135;50.702;7.276;2022-07-23T02:52:31;22.00;58.20
19947;DHT22;10135;50.702;7.276;2022-07-23T02:54:34;22.00;58.30
19947;DHT22;10135;50.702;7.276;2022-07-23T02:56:35;21.90;58.20
19947;DHT22;10135;50.702;7.276;2022-07-23T02:58:35;21.90;58.30
19947;DHT22;10135;50.702;7.276;2022-07-23T03:00:36;21.90;58.30
19947;DHT22;10135;50.702;7.276;2022-07-23T03:26:19;22.00;59.00
19947;DHT22;10135;50.702;7.276;2022-07-23T03:28:20;22.00;58.70
19947;DHT22;10135;50.702;7.276;2022-07-23T03:30:21;22.00;58.70
19947;DHT22;10135;50.702;7.276;2022-07-23T03:32:23;21.90;58.70
19947;DHT22;10135;50.702;7.276;2022-07-23T03:34:24;21.90;58.70
19947;DHT22;10135;50.702;7.276;2022-07-23T03:36:25;21.90;58.70
19947;DHT22;10135;50.702;7.276;2022-07-23T03:38:25;21.90;58.80
19947;DHT22;10135;50.702;7.276;2022-07-23T03:40:26;21.80;58.70
19947;DHT22;10135;50.702;7.276;2022-07-23T03:42:27;21.90;58.80
19947;DHT22;10135;50.702;7.276;2022-07-23T03:44:28;21.80;58.80
19947;DHT22;10135;50.702;7.276;2022-07-23T03:46:29;21.80;58.80
19947;DHT22;10135;50.702;7.276;2022-07-23T03:48:29;21.80;58.80
19947;DHT22;10135;50.702;7.276;2022-07-23T03:50:30;21.80;58.80
19947;DHT22;10135;50.702;7.276;2022-07-23T03:52:30;21.70;58.80
19947;DHT22;10135;50.702;7.276;2022-07-23T03:54:31;21.80;58.90
19947;DHT22;10135;50.702;7.276;2022-07-23T03:56:32;21.80;59.00
19947;DHT22;10135;50.702;7.276;2022-07-23T03:58:32;21.70;58.90
19947;DHT22;10135;50.702;7.276;2022-07-23T04:00:33;21.70;59.00
19947;DHT22;10135;50.702;7.276;2022-07-23T04:02:33;21.70;59.00
19947;DHT22;10135;50.702;7.276;2022-07-23T04:04:34;21.70;59.00
19947;DHT22;10135;50.702;7.276;2022-07-23T04:06:35;21.70;59.10
19947;DHT22;10135;50.702;7.276;2022-07-23T04:08:36;21.70;59.10
19947;DHT22;10135;50.702;7.276;2022-07-23T04:10:36;21.60;59.10
19947;DHT22;10135;50.702;7.276;2022-07-23T04:12:37;21.60;59.10
19947;DHT22;10135;50.702;7.276;2022-07-23T04:14:38;21.60;59.10
19947;DHT22;10135;50.702;7.276;2022-07-23T04:16:38;21.60;59.20
19947;DHT22;10135;50.702;7.276;2022-07-23T04:18:39;21.60;59.20
19947;DHT22;10135;50.702;7.276;2022-07-23T04:20:41;21.60;59.20
19947;DHT22;10135;50.702;7.276;2022-07-23T04:22:41;21.60;59.30
19947;DHT22;10135;50.702;7.276;2022-07-23T04:24:42;21.60;59.30
19947;DHT22;10135;50.702;7.276;2022-07-23T04:26:43;21.60;59.30
19947;DHT22;10135;50.702;7.276;2022-07-23T04:28:45;21.60;59.30
19947;DHT22;10135;50.702;7.276;2022-07-23T04:30:45;21.60;59.40
19947;DHT22;10135;50.702;7.276;2022-07-23T04:32:46;21.60;59.30
19947;DHT22;10135;50.702;7.276;2022-07-23T04:34:47;21.60;59.40
19947;DHT22;10135;50.702;7.276;2022-07-23T04:36:47;21.60;59.40
19947;DHT22;10135;50.702;7.276;2022-07-23T04:38:48;21.60;59.40
19947;DHT22;10135;50.702;7.276;2022-07-23T04:40:49;21.70;59.50
19947;DHT22;10135;50.702;7.276;2022-07-23T04:42:49;21.70;60.20
19947;DHT22;10135;50.702;7.276;2022-07-23T04:44:50;21.70;59.60
19947;DHT22;10135;50.702;7.276;2022-07-23T04:46:51;21.80;59.60
19947;DHT22;10135;50.702;7.276;2022-07-23T04:48:51;21.80;59.60
19947;DHT22;10135;50.702;7.276;2022-07-23T04:50:52;21.90;59.60
19947;DHT22;10135;50.702;7.276;2022-07-23T04:52:53;21.90;59.50
19947;DHT22;10135;50.702;7.276;2022-07-23T04:54:54;21.90;59.50
19947;DHT22;10135;50.702;7.276;2022-07-23T04:56:55;22.00;59.50
19947;DHT22;10135;50.702;7.276;2022-07-23T04:58:55;22.00;59.40
19947;DHT22;10135;50.702;7.276;2022-07-23T05:00:56;22.00;59.40
19947;DHT22;10135;50.702;7.276;2022-07-23T05:02:58;22.00;59.40
19947;DHT22;10135;50.702;7.276;2022-07-23T05:04:58;22.00;59.40
19947;DHT22;10135;50.702;7.276;2022-07-23T05:06:59;22.00;59.50
19947;DHT22;10135;50.702;7.276;2022-07-23T05:09:00;22.00;59.40
19947;DHT22;10135;50.702;7.276;2022-07-23T05:11:00;21.90;59.40
19947;DHT22;10135;50.702;7.276;2022-07-23T05:13:01;22.00;59.50
19947;DHT22;10135;50.702;7.276;2022-07-23T05:15:02;21.90;59.50
19947;DHT22;10135;50.702;7.276;2022-07-23T05:17:03;21.90;59.50
19947;DHT22;10135;50.702;7.276;2022-07-23T05:19:03;21.90;59.50
19947;DHT22;10135;50.702;7.276;2022-07-23T05:21:04;21.90;59.60
19947;DHT22;10135;50.702;7.276;2022-07-23T05:23:05;21.90;59.60
19947;DHT22;10135;50.702;7.276;2022-07-23T05:25:06;21.90;59.60
19947;DHT22;10135;50.702;7.276;2022-07-23T05:27:07;21.90;59.60
19947;DHT22;10135;50.702;7.276;2022-07-23T05:29:08;21.90;59.70
19947;DHT22;10135;50.702;7.276;2022-07-23T05:31:08;21.90;59.70
19947;DHT22;10135;50.702;7.276;2022-07-23T05:33:09;22.00;59.80
19947;DHT22;10135;50.702;7.276;2022-07-23T05:35:10;22.00;59.80
19947;DHT22;10135;50.702;7.276;2022-07-23T05:37:11;22.00;59.80
19947;DHT22;10135;50.702;7.276;2022-07-23T05:39:12;22.00;59.80
19947;DHT22;10135;50.702;7.276;2022-07-23T05:41:12;22.00;59.90
19947;DHT22;10135;50.702;7.276;2022-07-23T05:43:13;22.00;59.80
19947;DHT22;10135;50.702;7.276;2022-07-23T05:45:13;22.00;59.80
19947;DHT22;10135;50.702;7.276;2022-07-23T05:47:14;22.00;59.80
19947;DHT22;10135;50.702;7.276;2022-07-23T05:49:15;22.00;59.80
19947;DHT22;10135;50.702;7.276;2022-07-23T05:51:20;22.00;59.90
19947;DHT22;10135;50.702;7.276;2022-07-23T05:53:22;22.00;60.10
19947;DHT22;10135;50.702;7.276;2022-07-23T05:55:22;22.00;59.90
19947;DHT22;10135;50.702;7.276;2022-07-23T05:57:23;22.00;59.90
19947;DHT22;10135;50.702;7.276;2022-07-23T05:59:24;22.00;59.90
19947;DHT22;10135;50.702;7.276;2022-07-23T06:01:24;22.00;59.90
19947;DHT22;10135;50.702;7.276;2022-07-23T06:03:25;22.00;59.90
19947;DHT22;10135;50.702;7.276;2022-07-23T06:05:25;21.90;59.90
19947;DHT22;10135;50.702;7.276;2022-07-23T06:07:26;21.90;60.70
19947;DHT22;10135;50.702;7.276;2022-07-23T06:09:27;21.90;60.00
19947;DHT22;10135;50.702;7.276;2022-07-23T06:11:27;21.90;60.10
19947;DHT22;10135;50.702;7.276;2022-07-23T06:13:28;21.80;60.00
19947;DHT22;10135;50.702;7.276;2022-07-23T06:15:29;21.80;60.10
19947;DHT22;10135;50.702;7.276;2022-07-23T06:17:30;21.80;60.20
19947;DHT22;10135;50.702;7.276;2022-07-23T06:19:31;21.80;60.30
19947;DHT22;10135;50.702;7.276;2022-07-23T06:21:32;21.80;60.30
19947;DHT22;10135;50.702;7.276;2022-07-23T06:23:32;21.80;60.40
19947;DHT22;10135;50.702;7.276;2022-07-23T06:25:33;21.80;60.40
19947;DHT22;10135;50.702;7.276;2022-07-23T06:27:34;21.80;60.50
19947;DHT22;10135;50.702;7.276;2022-07-23T06:29:34;21.80;60.50
19947;DHT22;10135;50.702;7.276;2022-07-23T06:31:35;21.80;60.60
19947;DHT22;10135;50.702;7.276;2022-07-23T06:33:36;21.80;60.60
19947;DHT22;10135;50.702;7.276;2022-07-23T06:35:36;21.80;60.60
19947;DHT22;10135;50.702;7.276;2022-07-23T06:37:37;21.90;60.70
19947;DHT22;10135;50.702;7.276;2022-07-23T06:39:38;21.90;60.70
19947;DHT22;10135;50.702;7.276;2022-07-23T06:41:38;21.90;60.70
19947;DHT22;10135;50.702;7.276;2022-07-23T06:43:39;21.90;60.70
19947;DHT22;10135;50.702;7.276;2022-07-23T06:45:40;22.00;60.70
19947;DHT22;10135;50.702;7.276;2022-07-23T06:47:40;22.00;60.70
19947;DHT22;10135;50.702;7.276;2022-07-23T06:49:42;22.00;60.70
19947;DHT22;10135;50.702;7.276;2022-07-23T06:51:42;22.10;60.70
19947;DHT22;10135;50.702;7.276;2022-07-23T06:53:43;22.10;60.70
19947;DHT22;10135;50.702;7.276;2022-07-23T06:55:44;22.10;60.70
19947;DHT22;10135;50.702;7.276;2022-07-23T06:57:44;22.10;60.70
19947;DHT22;10135;50.702;7.276;2022-07-23T06:59:45;22.20;60.80
19947;DHT22;10135;50.702;7.276;2022-07-23T07:01:46;22.20;60.80
19947;DHT22;10135;50.702;7.276;2022-07-23T07:03:46;22.30;60.80
19947;DHT22;10135;50.702;7.276;2022-07-23T07:05:47;22.30;60.70
19947;DHT22;10135;50.702;7.276;2022-07-23T07:07:48;22.40;60.70
19947;DHT22;10135;50.702;7.276;2022-07-23T07:09:49;22.40;60.60
19947;DHT22;10135;50.702;7.276;2022-07-23T07:11:49;22.50;60.50
19947;DHT22;10135;50.702;7.276;2022-07-23T07:13:50;22.40;60.40
19947;DHT22;10135;50.702;7.276;2022-07-23T07:15:51;22.50;60.40
19947;DHT22;10135;50.702;7.276;2022-07-23T07:17:52;22.50;60.50
19947;DHT22;10135;50.702;7.276;2022-07-23T07:19:53;22.50;60.50
19947;DHT22;10135;50.702;7.276;2022-07-23T07:21:53;22.50;60.40
19947;DHT22;10135;50.702;7.276;2022-07-23T07:23:54;22.50;60.40
19947;DHT22;10135;50.702;7.276;2022-07-23T07:25:55;22.60;61.20
19947;DHT22;10135;50.702;7.276;2022-07-23T07:27:55;22.60;60.40
19947;DHT22;10135;50.702;7.276;2022-07-23T07:29:56;22.60;60.30
19947;DHT22;10135;50.702;7.276;2022-07-23T07:31:56;22.60;60.20
19947;DHT22;10135;50.702;7.276;2022-07-23T07:33:58;22.60;60.80
19947;DHT22;10135;50.702;7.276;2022-07-23T07:35:59;22.60;59.90
19947;DHT22;10135;50.702;7.276;2022-07-23T07:38:00;22.60;59.90
19947;DHT22;10135;50.702;7.276;2022-07-23T07:40:02;22.60;59.80
19947;DHT22;10135;50.702;7.276;2022-07-23T07:42:03;22.70;60.60
19947;DHT22;10135;50.702;7.276;2022-07-23T07:44:04;22.70;59.80
19947;DHT22;10135;50.702;7.276;2022-07-23T07:46:05;22.70;59.80
19947;DHT22;10135;50.702;7.276;2022-07-23T07:48:10;22.70;59.80
19947;DHT22;10135;50.702;7.276;2022-07-23T07:50:10;22.70;59.70
19947;DHT22;10135;50.702;7.276;2022-07-23T07:52:11;22.70;59.60
19947;DHT22;10135;50.702;7.276;2022-07-23T07:54:12;22.80;59.70
19947;DHT22;10135;50.702;7.276;2022-07-23T07:56:13;22.80;59.50
19947;DHT22;10135;50.702;7.276;2022-07-23T07:58:13;22.80;59.50
19947;DHT22;10135;50.702;7.276;2022-07-23T08:00:15;22.80;59.40
19947;DHT22;10135;50.702;7.276;2022-07-23T08:02:16;22.80;59.40
19947;DHT22;10135;50.702;7.276;2022-07-23T08:04:17;22.90;59.40
19947;DHT22;10135;50.702;7.276;2022-07-23T08:06:17;22.90;59.40
19947;DHT22;10135;50.702;7.276;2022-07-23T08:08:18;23.00;59.50
19947;DHT22;10135;50.702;7.276;2022-07-23T08:10:19;23.00;59.50
19947;DHT22;10135;50.702;7.276;2022-07-23T08:12:20;23.20;59.70
19947;DHT22;10135;50.702;7.276;2022-07-23T08:14:20;23.40;59.90
19947;DHT22;10135;50.702;7.276;2022-07-23T08:16:22;23.70;59.90
19947;DHT22;10135;50.702;7.276;2022-07-23T08:18:22;23.90;59.60
19947;DHT22;10135;50.702;7.276;2022-07-23T08:20:24;24.00;59.20
19947;DHT22;10135;50.702;7.276;2022-07-23T08:22:25;24.10;58.80
19947;DHT22;10135;50.702;7.276;2022-07-23T08:24:43;24.20;59.20
19947;DHT22;10135;50.702;7.276;2022-07-23T08:26:44;24.20;58.50
19947;DHT22;10135;50.702;7.276;2022-07-23T08:28:44;24.20;58.10
19947;DHT22;10135;50.702;7.276;2022-07-23T08:30:46;24.20;57.90
19947;DHT22;10135;50.702;7.276;2022-07-23T08:32:52;24.20;57.80
19947;DHT22;10135;50.702;7.276;2022-07-23T08:35:04;24.20;57.40
19947;DHT22;10135;50.702;7.276;2022-07-23T08:37:04;24.10;57.60
19947;DHT22;10135;50.702;7.276;2022-07-23T08:39:05;24.10;57.60
19947;DHT22;10135;50.702;7.276;2022-07-23T08:41:07;24.10;57.60
19947;DHT22;10135;50.702;7.276;2022-07-23T08:43:14;24.00;57.50
19947;DHT22;10135;50.702;7.276;2022-07-23T08:45:18;24.00;57.50
19947;DHT22;10135;50.702;7.276;2022-07-23T08:47:21;24.00;57.50
19947;DHT22;10135;50.702;7.276;2022-07-23T08:49:22;23.90;57.50
19947;DHT22;10135;50.702;7.276;2022-07-23T08:51:26;23.90;57.50
19947;DHT22;10135;50.702;7.276;2022-07-23T08:53:29;23.90;57.30
19947;DHT22;10135;50.702;7.276;2022-07-23T08:55:32;23.90;57.40
19947;DHT22;10135;50.702;7.276;2022-07-23T08:57:33;23.90;57.40
19947;DHT22;10135;50.702;7.276;2022-07-23T08:59:33;23.90;57.40
19947;DHT22;10135;50.702;7.276;2022-07-23T09:01:34;23.90;57.30
19947;DHT22;10135;50.702;7.276;2022-07-23T09:03:36;23.90;57.40
19947;DHT22;10135;50.702;7.276;2022-07-23T09:05:39;23.90;57.30
19947;DHT22;10135;50.702;7.276;2022-07-23T09:08:14;23.90;57.30
19947;DHT22;10135;50.702;7.276;2022-07-23T09:10:16;23.90;56.90
19947;DHT22;10135;50.702;7.276;2022-07-23T09:12:17;23.90;57.30
19947;DHT22;10135;50.702;7.276;2022-07-23T09:14:39;23.90;57.20
19947;DHT22;10135;50.702;7.276;2022-07-23T09:16:42;23.90;56.80
19947;DHT22;10135;50.702;7.276;2022-07-23T09:19:00;23.90;57.00
19947;DHT22;10135;50.702;7.276;2022-07-23T09:21:15;23.90;56.80
19947;DHT22;10135;50.702;7.276;2022-07-23T09:23:17;23.90;56.70
19947;DHT22;10135;50.702;7.276;2022-07-23T09:25:18;24.00;57.10
19947;DHT22;10135;50.702;7.276;2022-07-23T09:27:19;24.00;57.00
19947;DHT22;10135;50.702;7.276;2022-07-23T09:29:22;23.90;56.90
19947;DHT22;10135;50.702;7.276;2022-07-23T09:31:43;24.00;56.90
19947;DHT22;10135;50.702;7.276;2022-07-23T09:33:45;24.00;56.70
19947;DHT22;10135;50.702;7.276;2022-07-23T09:35:51;24.00;56.90
19947;DHT22;10135;50.702;7.276;2022-07-23T09:38:02;24.10;56.90
19947;DHT22;10135;50.702;7.276;2022-07-23T09:40:08;24.10;56.60
19947;DHT22;10135;50.702;7.276;2022-07-23T09:44:19;24.10;56.70
19947;DHT22;10135;50.702;7.276;2022-07-23T09:46:27;24.20;56.40
19947;DHT22;10135;50.702;7.276;2022-07-23T09:48:28;24.20;56.40
19947;DHT22;10135;50.702;7.276;2022-07-23T09:50:29;24.30;56.50
19947;DHT22;10135;50.702;7.276;2022-07-23T09:52:34;24.30;56.40
19947;DHT22;10135;50.702;7.276;2022-07-23T09:54:38;24.30;56.10
19947;DHT22;10135;50.702;7.276;2022-07-23T09:56:41;24.40;56.40
19947;DHT22;10135;50.702;7.276;2022-07-23T09:58:44;24.40;56.40
19947;DHT22;10135;50.702;7.276;2022-07-23T10:00:48;24.40;56.30
19947;DHT22;10135;50.702;7.276;2022-07-23T10:02:51;24.40;56.40
19947;DHT22;10135;50.702;7.276;2022-07-23T10:04:54;24.40;56.30
19947;DHT22;10135;50.702;7.276;2022-07-23T10:07:00;24.50;56.20
19947;DHT22;10135;50.702;7.276;2022-07-23T10:09:03;24.50;56.00
19947;DHT22;10135;50.702;7.276;2022-07-23T10:11:04;24.50;56.00
19947;DHT22;10135;50.702;7.276;2022-07-23T10:13:05;24.60;55.90
19947;DHT22;10135;50.702;7.276;2022-07-23T10:15:06;24.60;55.80
19947;DHT22;10135;50.702;7.276;2022-07-23T10:17:07;24.60;55.80
19947;DHT22;10135;50.702;7.276;2022-07-23T10:19:09;24.70;55.90
19947;DHT22;10135;50.702;7.276;2022-07-23T10:21:10;24.70;55.90
19947;DHT22;10135;50.702;7.276;2022-07-23T10:26:17;24.80;55.40
19947;DHT22;10135;50.702;7.276;2022-07-23T10:28:42;24.80;55.10
19947;DHT22;10135;50.702;7.276;2022-07-23T10:33:57;24.90;55.00
19947;DHT22;10135;50.702;7.276;2022-07-23T10:38:29;25.00;54.90
19947;DHT22;10135;50.702;7.276;2022-07-23T10:40:33;25.00;54.70
19947;DHT22;10135;50.702;7.276;2022-07-23T10:42:35;25.00;55.00
19947;DHT22;10135;50.702;7.276;2022-07-23T10:44:44;25.10;54.90
19947;DHT22;10135;50.702;7.276;2022-07-23T10:49:30;25.10;54.30
19947;DHT22;10135;50.702;7.276;2022-07-23T10:51:32;25.20;54.30
19947;DHT22;10135;50.702;7.276;2022-07-23T10:55:52;25.30;54.40
19947;DHT22;10135;50.702;7.276;2022-07-23T10:57:52;25.30;54.80
19947;DHT22;10135;50.702;7.276;2022-07-23T11:02:22;25.50;54.30
19947;DHT22;10135;50.702;7.276;2022-07-23T11:04:52;25.50;54.10
19947;DHT22;10135;50.702;7.276;2022-07-23T11:09:25;25.60;54.20
19947;DHT22;10135;50.702;7.276;2022-07-23T11:11:40;25.60;53.60
19947;DHT22;10135;50.702;7.276;2022-07-23T11:13:44;25.70;54.00
19947;DHT22;10135;50.702;7.276;2022-07-23T11:18:01;25.70;53.30
19947;DHT22;10135;50.702;7.276;2022-07-23T11:20:22;25.80;53.80
19947;DHT22;10135;50.702;7.276;2022-07-23T11:22:36;25.80;53.10
19947;DHT22;10135;50.702;7.276;2022-07-23T11:24:52;25.80;53.00
19947;DHT22;10135;50.702;7.276;2022-07-23T11:26:57;25.90;53.00
19947;DHT22;10135;50.702;7.276;2022-07-23T11:31:26;26.00;53.10
19947;DHT22;10135;50.702;7.276;2022-07-23T11:33:27;26.10;53.50
19947;DHT22;10135;50.702;7.276;2022-07-23T11:35:28;26.10;53.40
19947;DHT22;10135;50.702;7.276;2022-07-23T11:37:33;26.10;53.30
19947;DHT22;10135;50.702;7.276;2022-07-23T11:39:39;26.10;53.20
19947;DHT22;10135;50.702;7.276;2022-07-23T11:41:46;26.20;53.20
19947;DHT22;10135;50.702;7.276;2022-07-23T11:43:47;26.20;52.50
19947;DHT22;10135;50.702;7.276;2022-07-23T11:45:51;26.20;52.90
19947;DHT22;10135;50.702;7.276;2022-07-23T11:47:58;26.30;52.80
19947;DHT22;10135;50.702;7.276;2022-07-23T11:50:00;26.30;52.80
19947;DHT22;10135;50.702;7.276;2022-07-23T11:52:07;26.30;52.50
19947;DHT22;10135;50.702;7.276;2022-07-23T11:54:10;26.30;52.20
19947;DHT22;10135;50.702;7.276;2022-07-23T11:56:11;26.40;52.50
19947;DHT22;10135;50.702;7.276;2022-07-23T11:58:12;26.40;52.40
19947;DHT22;10135;50.702;7.276;2022-07-23T12:00:18;26.40;52.40
19947;DHT22;10135;50.702;7.276;2022-07-23T12:02:21;26.50;52.00
19947;DHT22;10135;50.702;7.276;2022-07-23T12:04:22;26.60;52.30
19947;DHT22;10135;50.702;7.276;2022-07-23T12:06:23;26.60;52.20
19947;DHT22;10135;50.702;7.276;2022-07-23T12:08:23;26.60;52.00
19947;DHT22;10135;50.702;7.276;2022-07-23T12:10:28;26.70;52.00
19947;DHT22;10135;50.702;7.276;2022-07-23T12:12:56;26.70;51.90
19947;DHT22;10135;50.702;7.276;2022-07-23T12:14:58;26.70;51.40
19947;DHT22;10135;50.702;7.276;2022-07-23T12:17:09;26.70;51.90
19947;DHT22;10135;50.702;7.276;2022-07-23T12:19:10;26.70;51.50
19947;DHT22;10135;50.702;7.276;2022-07-23T12:21:11;26.70;51.90
19947;DHT22;10135;50.702;7.276;2022-07-23T12:23:14;26.80;51.80
19947;DHT22;10135;50.702;7.276;2022-07-23T12:25:26;26.80;51.50
19947;DHT22;10135;50.702;7.276;2022-07-23T12:27:29;26.90;51.50
19947;DHT22;10135;50.702;7.276;2022-07-23T12:29:35;27.00;51.50
19947;DHT22;10135;50.702;7.276;2022-07-23T12:31:36;27.00;51.10
19947;DHT22;10135;50.702;7.276;2022-07-23T12:33:39;27.10;51.40
19947;DHT22;10135;50.702;7.276;2022-07-23T12:35:42;27.20;51.30
19947;DHT22;10135;50.702;7.276;2022-07-23T12:37:46;27.20;51.00
19947;DHT22;10135;50.702;7.276;2022-07-23T12:39:48;27.30;51.00
19947;DHT22;10135;50.702;7.276;2022-07-23T12:41:51;27.30;50.90
19947;DHT22;10135;50.702;7.276;2022-07-23T12:43:52;27.40;50.80
19947;DHT22;10135;50.702;7.276;2022-07-23T12:45:56;27.40;50.90
19947;DHT22;10135;50.702;7.276;2022-07-23T12:49:00;27.50;50.70
19947;DHT22;10135;50.702;7.276;2022-07-23T12:51:08;27.60;50.20
19947;DHT22;10135;50.702;7.276;2022-07-23T12:53:20;27.70;50.30
19947;DHT22;10135;50.702;7.276;2022-07-23T12:55:27;27.70;50.00
19947;DHT22;10135;50.702;7.276;2022-07-23T12:57:49;27.80;50.10
19947;DHT22;10135;50.702;7.276;2022-07-23T12:59:49;27.80;49.00
19947;DHT22;10135;50.702;7.276;2022-07-23T13:01:55;27.80;49.80
19947;DHT22;10135;50.702;7.276;2022-07-23T13:06:11;27.90;49.50
19947;DHT22;10135;50.702;7.276;2022-07-23T13:08:12;27.90;49.60
19947;DHT22;10135;50.702;7.276;2022-07-23T13:10:13;28.00;49.50
19947;DHT22;10135;50.702;7.276;2022-07-23T13:12:13;28.00;49.30
19947;DHT22;10135;50.702;7.276;2022-07-23T13:14:15;28.10;49.30
19947;DHT22;10135;50.702;7.276;2022-07-23T13:16:17;28.10;49.00
19947;DHT22;10135;50.702;7.276;2022-07-23T13:18:19;28.10;48.90
19947;DHT22;10135;50.702;7.276;2022-07-23T13:20:20;28.10;48.70
19947;DHT22;10135;50.702;7.276;2022-07-23T13:22:20;28.10;48.70
19947;DHT22;10135;50.702;7.276;2022-07-23T13:24:22;28.20;48.70
19947;DHT22;10135;50.702;7.276;2022-07-23T13:26:23;28.20;48.60
19947;DHT22;10135;50.702;7.276;2022-07-23T13:28:23;28.20;48.50
19947;DHT22;10135;50.702;7.276;2022-07-23T13:30:24;28.20;48.40
19947;DHT22;10135;50.702;7.276;2022-07-23T13:32:25;28.20;48.30
19947;DHT22;10135;50.702;7.276;2022-07-23T13:34:25;28.20;48.20
19947;DHT22;10135;50.702;7.276;2022-07-23T13:36:26;28.20;48.10
19947;DHT22;10135;50.702;7.276;2022-07-23T13:38:27;28.20;48.10
19947;DHT22;10135;50.702;7.276;2022-07-23T13:40:27;28.20;48.10
19947;DHT22;10135;50.702;7.276;2022-07-23T13:42:28;28.20;48.00
19947;DHT22;10135;50.702;7.276;2022-07-23T13:44:29;28.20;48.00